createdAt,value
2022-09-07T00:02:14.609Z,4.90
2022-09-07T00:05:00.003Z,2.90
2022-09-07T00:07:46.030Z,3.60
2022-09-07T00:10:31.365Z,2.50
2022-09-07T00:13:17.214Z,3.00
2022-09-07T00:16:07.168Z,4.20
2022-09-07T00:18:54.207Z,3.30
2022-09-07T00:21:39.722Z,2.00
2022-09-07T00:24:25.639Z,6.40
2022-09-07T00:27:10.949Z,4.90
2022-09-07T00:29:56.539Z,4.00
2022-09-07T00:32:42.069Z,3.10
2022-09-07T00:35:27.829Z,3.40
2022-09-07T00:38:13.632Z,3.20
2022-09-07T00:40:59.173Z,5.00
2022-09-07T00:43:47.217Z,6.60
2022-09-07T00:46:33.102Z,4.60
2022-09-07T00:49:21.155Z,4.30
2022-09-07T00:52:06.975Z,2.90
2022-09-07T00:54:53.768Z,3.70
2022-09-07T01:05:11.987Z,4.50
2022-09-07T01:08:01.226Z,4.30
2022-09-07T01:10:47.518Z,3.70
2022-09-07T01:13:33.720Z,5.90
2022-09-07T01:16:38.276Z,3.50
2022-09-07T01:19:44.147Z,3.20
2022-09-07T01:22:54.413Z,5.60
2022-09-07T01:25:53.825Z,3.50
2022-09-07T01:28:40.834Z,3.40
2022-09-07T01:31:34.958Z,4.50
2022-09-07T01:34:25.940Z,3.80
2022-09-07T01:37:13.121Z,5.80
2022-09-07T01:40:19.215Z,6.00
2022-09-07T01:43:19.404Z,2.70
2022-09-07T01:46:07.482Z,5.90
2022-09-07T01:48:53.926Z,3.70
2022-09-07T01:51:42.631Z,4.10
2022-09-07T01:54:33.486Z,4.20
2022-09-07T01:57:25.283Z,7.20
2022-09-07T02:00:15.954Z,3.90
2022-09-07T02:03:05.840Z,3.90
2022-09-07T02:05:58.375Z,3.50
2022-09-07T02:11:37.868Z,3.00
2022-09-07T02:14:27.544Z,5.50
2022-09-07T02:17:23.917Z,2.90
2022-09-07T02:20:21.340Z,3.20
2022-09-07T02:23:16.929Z,4.10
2022-09-07T02:26:04.427Z,3.20
2022-09-07T02:28:50.345Z,4.80
2022-09-07T02:31:36.820Z,3.90
2022-09-07T02:34:27.660Z,2.80
2022-09-07T02:37:14.646Z,3.20
2022-09-07T02:40:00.564Z,2.40
2022-09-07T02:42:47.236Z,6.20
2022-09-07T02:45:38.253Z,2.90
2022-09-07T02:48:24.068Z,5.10
2022-09-07T02:51:17.813Z,4.20
2022-09-07T02:54:13.853Z,6.30
2022-09-07T02:57:15.517Z,4.10
2022-09-07T03:00:06.933Z,4.50
2022-09-07T03:03:28.299Z,7.20
2022-09-07T03:06:22.750Z,1.90
2022-09-07T03:09:14.765Z,3.70
2022-09-07T03:12:02.863Z,3.80
2022-09-07T03:14:49.409Z,3.10
2022-09-07T03:17:36.001Z,4.70
2022-09-07T03:20:22.434Z,2.50
2022-09-07T03:23:11.491Z,13.40
2022-09-07T03:25:57.390Z,4.40
2022-09-07T03:28:43.082Z,5.20
2022-09-07T03:31:28.757Z,3.70
2022-09-07T03:34:15.753Z,3.30
2022-09-07T03:37:02.955Z,3.20
2022-09-07T03:39:51.190Z,4.70
2022-09-07T03:42:37.532Z,4.60
2022-09-07T03:45:23.322Z,4.20
2022-09-07T03:48:09.321Z,2.50
2022-09-07T03:50:55.610Z,5.70
2022-09-07T03:53:42.918Z,4.70
2022-09-07T03:56:28.607Z,6.30
2022-09-07T03:59:17.225Z,3.70
2022-09-07T04:02:03.432Z,4.20
2022-09-07T04:04:49.148Z,3.00
2022-09-07T04:07:35.185Z,3.40
2022-09-07T04:10:21.011Z,6.90
2022-09-07T04:13:07.798Z,4.10
2022-09-07T04:15:54.116Z,6.90
2022-09-07T04:18:41.177Z,1.60
2022-09-07T04:21:28.805Z,5.50
2022-09-07T04:24:14.707Z,10.70
2022-09-07T04:27:01.787Z,6.20
2022-09-07T04:29:47.407Z,9.90
2022-09-07T04:32:33.568Z,5.10
2022-09-07T04:35:22.391Z,16.10
2022-09-07T04:38:09.440Z,4.60
2022-09-07T04:40:59.688Z,10.70
2022-09-07T04:43:46.552Z,4.00
2022-09-07T04:46:34.631Z,8.40
2022-09-07T04:49:20.854Z,5.30
2022-09-07T04:52:06.817Z,4.50
2022-09-07T04:54:52.819Z,3.70
2022-09-07T04:57:41.318Z,4.80
2022-09-07T05:00:27.363Z,10.40
2022-09-07T05:03:13.859Z,11.20
2022-09-07T05:06:09.263Z,7.40
2022-09-07T05:08:55.490Z,4.90
2022-09-07T05:11:41.829Z,4.50
2022-09-07T05:14:27.161Z,2.20
2022-09-07T05:17:13.046Z,3.70
2022-09-07T05:19:58.749Z,6.00
2022-09-07T05:22:44.865Z,9.30
2022-09-07T05:25:31.018Z,4.50
2022-09-07T05:28:19.445Z,4.30
2022-09-07T05:31:21.722Z,3.40
2022-09-07T05:37:14.336Z,5.30
2022-09-07T05:40:00.387Z,3.30
2022-09-07T05:42:49.577Z,6.00
2022-09-07T05:45:36.108Z,11.40
2022-09-07T05:48:22.227Z,17.80
2022-09-07T05:51:08.462Z,6.30
2022-09-07T05:53:55.332Z,19.90
2022-09-07T05:56:40.812Z,11.30
2022-09-07T05:59:27.374Z,13.20
2022-09-07T06:02:14.460Z,7.30
2022-09-07T06:05:00.422Z,8.90
2022-09-07T06:07:47.802Z,16.30
2022-09-07T06:10:49.454Z,7.70
2022-09-07T06:13:35.063Z,20.60
2022-09-07T06:16:20.924Z,9.20
2022-09-07T06:19:07.343Z,12.10
2022-09-07T06:21:52.982Z,11.60
2022-09-07T06:24:38.761Z,15.00
2022-09-07T06:27:24.266Z,14.40
2022-09-07T06:30:09.833Z,13.10
2022-09-07T06:32:55.454Z,19.80
2022-09-07T06:35:40.996Z,19.00
2022-09-07T06:38:33.041Z,14.50
2022-09-07T06:44:24.974Z,20.50
2022-09-07T06:47:11.505Z,13.10
2022-09-07T06:49:57.524Z,13.00
2022-09-07T06:55:48.723Z,31.20
2022-09-07T06:58:35.512Z,16.00
2022-09-07T07:01:23.603Z,15.20
2022-09-07T07:04:09.281Z,16.30
2022-09-07T07:06:55.355Z,12.40
2022-09-07T07:09:41.025Z,24.30
2022-09-07T07:15:11.569Z,10.30
2022-09-07T07:18:02.553Z,13.70
2022-09-07T07:21:01.423Z,18.40
2022-09-07T07:23:53.602Z,11.70
2022-09-07T07:26:39.739Z,10.90
2022-09-07T07:29:28.244Z,12.80
2022-09-07T07:32:14.589Z,13.70
2022-09-07T07:35:01.278Z,20.00
2022-09-07T07:37:47.653Z,20.00
2022-09-07T07:40:36.237Z,15.40
2022-09-07T07:43:23.238Z,13.80
2022-09-07T07:46:11.849Z,13.60
2022-09-07T07:48:58.131Z,21.00
2022-09-07T07:54:49.777Z,19.70
2022-09-07T07:57:35.306Z,12.10
2022-09-07T08:00:37.462Z,15.90
2022-09-07T08:03:28.090Z,11.40
2022-09-07T08:06:15.447Z,10.40
2022-09-07T08:09:00.794Z,15.50
2022-09-07T08:11:47.038Z,15.10
2022-09-07T08:14:35.832Z,6.30
2022-09-07T08:17:21.422Z,7.40
2022-09-07T08:20:06.921Z,9.20
2022-09-07T08:22:52.401Z,4.50
2022-09-07T08:25:38.081Z,6.10
2022-09-07T08:28:23.673Z,4.70
2022-09-07T08:31:10.969Z,5.60
2022-09-07T08:33:56.616Z,6.60
2022-09-07T08:36:43.327Z,4.80
2022-09-07T08:39:29.572Z,8.50
2022-09-07T08:42:19.951Z,6.90
2022-09-07T08:45:14.193Z,4.70
2022-09-07T08:48:00.415Z,7.40
2022-09-07T08:50:52.321Z,6.40
2022-09-07T08:53:42.964Z,11.00
2022-09-07T08:56:34.752Z,6.00
2022-09-07T08:59:40.336Z,6.80
2022-09-07T09:02:27.968Z,6.60
2022-09-07T09:05:18.285Z,4.40
2022-09-07T09:08:13.008Z,7.40
2022-09-07T09:11:04.830Z,4.20
2022-09-07T09:14:08.461Z,5.90
2022-09-07T09:17:32.018Z,5.10
2022-09-07T09:20:30.483Z,4.70
2022-09-07T09:23:17.332Z,4.00
2022-09-07T09:26:06.965Z,5.60
2022-09-07T09:28:52.703Z,4.40
2022-09-07T09:31:38.593Z,3.70
2022-09-07T09:34:27.963Z,4.60
2022-09-07T09:37:15.087Z,6.70
2022-09-07T09:40:02.775Z,5.00
2022-09-07T09:42:57.751Z,5.60
2022-09-07T09:48:56.443Z,8.50
2022-09-07T09:54:53.277Z,14.70
2022-09-07T10:01:22.367Z,4.40
2022-09-07T10:04:24.405Z,5.60
2022-09-07T10:07:25.470Z,3.80
2022-09-07T10:10:15.073Z,4.20
2022-09-07T10:13:00.388Z,3.00
2022-09-07T10:15:49.597Z,9.80
2022-09-07T10:18:37.039Z,9.00
2022-09-07T10:21:24.284Z,5.30
2022-09-07T10:24:22.663Z,7.30
2022-09-07T10:27:27.806Z,4.30
2022-09-07T10:30:14.750Z,4.60
2022-09-07T10:33:09.855Z,8.00
2022-09-07T10:35:59.445Z,5.90
2022-09-07T10:38:53.837Z,9.80
2022-09-07T10:41:55.259Z,7.10
2022-09-07T10:44:59.808Z,7.70
2022-09-07T10:47:50.567Z,9.10
2022-09-07T10:50:41.948Z,10.90
2022-09-07T10:56:33.996Z,5.00
2022-09-07T11:03:24.967Z,3.60
2022-09-07T11:06:31.123Z,5.90
2022-09-07T11:09:25.792Z,3.70
2022-09-07T11:12:20.775Z,3.60
2022-09-07T11:15:27.203Z,3.20
2022-09-07T11:18:15.779Z,2.30
2022-09-07T11:21:03.184Z,4.60
2022-09-07T11:23:54.397Z,5.10
2022-09-07T11:27:06.363Z,3.30
2022-09-07T11:29:56.368Z,7.00
2022-09-07T11:32:48.700Z,4.00
2022-09-07T11:35:37.142Z,4.50
2022-09-07T11:38:32.448Z,5.60
2022-09-07T11:41:22.761Z,5.20
2022-09-07T11:44:37.225Z,3.90
2022-09-07T11:47:27.932Z,6.40
2022-09-07T11:50:18.442Z,4.50
2022-09-07T11:53:23.491Z,7.70
2022-09-07T11:56:19.368Z,7.50
2022-09-07T11:59:27.820Z,3.30
2022-09-07T12:02:57.631Z,3.40
2022-09-07T12:05:58.650Z,3.70
2022-09-07T12:09:12.748Z,3.60
2022-09-07T12:12:16.364Z,3.60
2022-09-07T12:15:23.822Z,2.60
2022-09-07T12:18:12.011Z,3.00
2022-09-07T12:20:58.114Z,3.30
2022-09-07T12:23:49.003Z,4.00
2022-09-07T12:26:41.203Z,3.20
2022-09-07T12:29:28.922Z,4.20
2022-09-07T12:35:47.193Z,4.50
2022-09-07T12:38:42.336Z,3.70
2022-09-07T12:41:40.454Z,3.40
2022-09-07T12:44:35.926Z,2.70
2022-09-07T12:47:27.876Z,3.40
2022-09-07T12:50:21.238Z,3.50
2022-09-07T12:53:18.830Z,4.30
2022-09-07T12:56:28.192Z,4.60
2022-09-07T12:59:26.279Z,3.90
2022-09-07T13:02:24.899Z,6.00
2022-09-07T13:05:17.376Z,5.00
2022-09-07T13:08:18.635Z,4.90
2022-09-07T13:14:04.436Z,6.20
2022-09-07T13:17:16.619Z,3.30
2022-09-07T13:20:06.774Z,4.90
2022-09-07T13:22:53.970Z,3.50
2022-09-07T13:25:42.482Z,5.50
2022-09-07T13:28:31.372Z,2.60
2022-09-07T13:31:40.121Z,4.10
2022-09-07T13:34:37.960Z,2.90
2022-09-07T13:37:27.121Z,2.60
2022-09-07T13:40:15.316Z,2.70
2022-09-07T13:43:04.270Z,3.30
2022-09-07T13:46:08.616Z,5.60
2022-09-07T13:49:03.713Z,5.00
2022-09-07T13:51:58.695Z,4.10
2022-09-07T13:54:48.010Z,2.80
2022-09-07T13:57:55.300Z,4.70
2022-09-07T14:00:54.434Z,2.60
2022-09-07T14:04:02.211Z,3.00
2022-09-07T14:06:48.338Z,2.90
2022-09-07T14:09:39.306Z,2.50
2022-09-07T14:15:32.109Z,2.90
2022-09-07T14:18:31.061Z,2.50
2022-09-07T14:21:17.670Z,3.00
2022-09-07T14:24:28.491Z,5.60
2022-09-07T14:27:25.630Z,4.90
2022-09-07T14:30:27.476Z,4.10
2022-09-07T14:33:17.027Z,7.90
2022-09-07T14:36:18.009Z,3.00
2022-09-07T14:42:01.707Z,3.10
2022-09-07T14:44:51.291Z,6.50
2022-09-07T14:47:42.011Z,6.70
2022-09-07T14:50:36.421Z,3.00
2022-09-07T14:53:37.121Z,4.70
2022-09-07T14:56:25.363Z,5.20
2022-09-07T14:59:36.607Z,6.30
2022-09-07T15:02:33.971Z,5.80
2022-09-07T15:05:37.924Z,5.20
2022-09-07T15:08:46.860Z,3.40
2022-09-07T15:11:37.135Z,7.00
2022-09-07T15:14:24.886Z,5.70
2022-09-07T15:17:46.659Z,3.20
2022-09-07T15:20:36.707Z,3.90
2022-09-07T15:23:26.809Z,3.70
2022-09-07T15:27:01.917Z,6.60
2022-09-07T15:29:20.574Z,4.30
2022-09-07T15:32:08.935Z,17.50
2022-09-07T15:34:55.241Z,4.10
2022-09-07T15:41:18.126Z,4.40
2022-09-07T15:43:59.608Z,6.00
2022-09-07T15:49:53.946Z,6.60
2022-09-07T15:52:41.244Z,3.80
2022-09-07T15:55:27.041Z,6.70
2022-09-07T15:58:13.360Z,4.90
2022-09-07T16:04:06.289Z,4.70
2022-09-07T16:06:54.158Z,5.20
2022-09-07T16:09:40.735Z,5.30
2022-09-07T16:15:33.662Z,8.10
2022-09-07T16:18:19.655Z,8.70
2022-09-07T16:21:11.774Z,5.30
2022-09-07T16:23:59.129Z,5.40
2022-09-07T16:26:46.016Z,4.60
2022-09-07T16:29:32.270Z,5.60
2022-09-07T16:35:25.060Z,5.10
2022-09-07T16:41:22.286Z,4.60
2022-09-07T16:44:08.516Z,4.90
2022-09-07T16:46:54.467Z,6.50
2022-09-07T16:49:41.594Z,4.50
2022-09-07T16:52:28.161Z,5.00
2022-09-07T16:55:15.755Z,5.70
2022-09-07T17:01:09.638Z,7.10
2022-09-07T17:03:56.228Z,9.40
2022-09-07T17:06:42.180Z,11.20
2022-09-07T17:09:28.164Z,7.40
2022-09-07T17:12:18.050Z,5.50
2022-09-07T17:15:07.727Z,5.80
2022-09-07T17:17:53.555Z,5.40
2022-09-07T17:20:39.431Z,4.50
2022-09-07T17:23:26.206Z,6.70
2022-09-07T17:26:13.513Z,5.60
2022-09-07T17:29:01.140Z,6.30
2022-09-07T17:34:56.075Z,6.70
2022-09-07T17:37:43.604Z,6.70
2022-09-07T17:40:33.049Z,6.50
2022-09-07T17:46:29.221Z,8.70
2022-09-07T17:49:17.002Z,5.90
2022-09-07T17:52:04.090Z,5.90
2022-09-07T17:54:49.141Z,4.70
2022-09-07T17:57:38.764Z,5.80
2022-09-07T18:00:24.142Z,4.80
2022-09-07T18:03:12.370Z,9.30
2022-09-07T18:05:59.226Z,7.10
2022-09-07T18:08:45.524Z,5.10
2022-09-07T18:11:48.496Z,6.90
2022-09-07T18:14:35.349Z,4.50
2022-09-07T18:17:21.288Z,6.20
2022-09-07T18:20:07.338Z,5.20
2022-09-07T18:22:54.197Z,5.70
2022-09-07T18:25:40.262Z,9.70
2022-09-07T18:31:32.757Z,7.70
2022-09-07T18:34:18.738Z,7.20
2022-09-07T18:37:04.907Z,6.70
2022-09-07T18:39:51.356Z,7.10
2022-09-07T18:42:37.969Z,7.90
2022-09-07T18:45:27.793Z,7.20
2022-09-07T18:48:14.325Z,6.40
2022-09-07T18:51:02.237Z,7.10
2022-09-07T18:53:48.761Z,6.40
2022-09-07T18:56:34.550Z,6.90
2022-09-07T18:59:21.503Z,6.20
2022-09-07T19:02:08.748Z,6.30
2022-09-07T19:08:03.423Z,8.60
2022-09-07T19:10:49.671Z,7.70
2022-09-07T19:13:35.979Z,7.50
2022-09-07T19:16:22.407Z,9.10
2022-09-07T19:19:09.972Z,4.70
2022-09-07T19:22:02.966Z,9.50
2022-09-07T19:24:48.861Z,7.60
2022-09-07T19:27:35.744Z,8.60
2022-09-07T19:30:21.563Z,7.00
2022-09-07T19:33:11.668Z,7.30
2022-09-07T19:35:57.569Z,6.30
2022-09-07T19:38:43.424Z,6.70
2022-09-07T19:41:33.746Z,8.10
2022-09-07T19:44:21.725Z,7.20
2022-09-07T19:47:08.982Z,6.80
2022-09-07T19:49:55.076Z,6.90
2022-09-07T19:52:41.089Z,7.60
2022-09-07T19:55:27.274Z,12.40
2022-09-07T19:58:13.180Z,9.20
2022-09-07T20:00:59.178Z,8.40
2022-09-07T20:03:46.409Z,16.90
2022-09-07T20:06:33.177Z,11.90
2022-09-07T20:09:21.135Z,6.40
2022-09-07T20:12:07.891Z,8.00
2022-09-07T20:14:54.723Z,8.00
2022-09-07T20:17:40.901Z,7.60
2022-09-07T20:20:26.762Z,7.40
2022-09-07T20:23:13.544Z,9.20
2022-09-07T20:26:00.164Z,8.50
2022-09-07T20:28:47.179Z,7.40
2022-09-07T20:31:33.033Z,8.20
2022-09-07T20:34:25.785Z,7.00
2022-09-07T20:37:11.717Z,9.70
2022-09-07T20:40:01.295Z,8.70
2022-09-07T20:42:50.894Z,8.90
2022-09-07T20:45:36.630Z,8.70
2022-09-07T20:48:25.932Z,8.20
2022-09-07T20:51:20.842Z,8.70
2022-09-07T20:54:08.551Z,11.10
2022-09-07T20:56:55.751Z,10.60
2022-09-07T20:59:41.436Z,10.30
2022-09-07T21:02:30.673Z,9.30
2022-09-07T21:05:18.843Z,10.80
2022-09-07T21:08:04.580Z,11.70
2022-09-07T21:10:50.258Z,15.60
2022-09-07T21:13:36.329Z,10.70
2022-09-07T21:16:24.712Z,12.40
2022-09-07T21:19:11.186Z,14.00
2022-09-07T21:21:57.348Z,19.50
2022-09-07T21:24:46.660Z,25.10
2022-09-07T21:27:38.539Z,12.40
2022-09-07T21:30:25.308Z,14.80
2022-09-07T21:33:14.789Z,12.40
2022-09-07T21:36:14.383Z,9.60
2022-09-07T21:39:01.100Z,14.30
2022-09-07T21:41:47.412Z,10.60
2022-09-07T21:44:36.778Z,11.40
2022-09-07T21:47:25.709Z,13.90
2022-09-07T21:50:13.977Z,14.20
2022-09-07T21:53:01.364Z,17.60
2022-09-07T21:56:00.733Z,13.80
2022-09-07T21:59:01.788Z,10.50
2022-09-07T22:01:54.047Z,10.70
2022-09-07T22:04:54.631Z,10.70
2022-09-07T22:07:49.654Z,12.60
2022-09-07T22:10:42.274Z,11.10
2022-09-07T22:14:00.789Z,10.30
2022-09-07T22:16:56.204Z,14.30
2022-09-07T22:19:46.617Z,10.30
2022-09-07T22:22:36.521Z,9.30
2022-09-07T22:25:23.875Z,9.10
2022-09-07T22:28:10.091Z,12.40
2022-09-07T22:30:56.655Z,10.10
2022-09-07T22:33:45.405Z,14.30
2022-09-07T22:36:33.535Z,13.30
2022-09-07T22:39:19.833Z,12.50
2022-09-07T22:42:05.764Z,16.70
2022-09-07T22:44:51.366Z,12.60
2022-09-07T22:47:42.990Z,16.20
2022-09-07T22:50:29.120Z,13.10
2022-09-07T22:53:18.495Z,12.00
2022-09-07T22:56:08.901Z,17.50
2022-09-07T22:58:56.301Z,13.80
2022-09-07T23:01:42.928Z,14.40
2022-09-07T23:04:31.709Z,12.40
2022-09-07T23:07:19.040Z,12.60
2022-09-07T23:10:05.697Z,11.20
2022-09-07T23:12:52.545Z,14.80
2022-09-07T23:15:38.750Z,11.90
2022-09-07T23:18:24.348Z,10.90
2022-09-07T23:21:10.452Z,24.80
2022-09-07T23:23:58.520Z,11.20
2022-09-07T23:26:46.863Z,12.90
2022-09-07T23:29:35.593Z,12.10
2022-09-07T23:32:25.850Z,11.40
2022-09-07T23:35:16.470Z,11.80
2022-09-07T23:38:05.469Z,13.40
2022-09-07T23:40:55.134Z,16.00
2022-09-07T23:43:42.806Z,9.30
2022-09-07T23:46:28.370Z,10.10
2022-09-07T23:49:18.610Z,10.90
2022-09-07T23:52:06.268Z,12.00
2022-09-07T23:54:57.812Z,14.50
2022-09-07T23:57:43.565Z,10.20
